createdAt,value
2018-01-31T01:53:40.896Z,31.45
2018-01-31T01:56:08.580Z,32.55
2018-01-31T01:58:36.769Z,32.80
2018-01-31T02:01:04.392Z,32.07
2018-01-31T02:03:32.080Z,32.25
2018-01-31T02:05:59.692Z,33.50
2018-01-31T02:08:27.340Z,33.77
2018-01-31T02:10:55.720Z,33.90
2018-01-31T02:13:24.140Z,32.60
2018-01-31T02:15:51.761Z,31.50
2018-01-31T02:18:19.425Z,32.53
2018-01-31T02:20:47.068Z,32.53
2018-01-31T02:23:15.805Z,32.67
2018-01-31T02:25:43.683Z,32.83
2018-01-31T02:28:11.295Z,32.33
2018-01-31T02:30:38.945Z,31.07
2018-01-31T02:33:06.911Z,35.40
2018-01-31T02:35:34.567Z,31.43
2018-01-31T02:38:02.214Z,31.62
2018-01-31T02:40:29.866Z,32.05
2018-01-31T02:42:57.604Z,30.97
2018-01-31T02:45:25.280Z,34.05
2018-01-31T02:47:53.109Z,31.93
2018-01-31T02:50:20.718Z,32.67
2018-01-31T02:52:48.333Z,31.37
2018-01-31T02:55:15.991Z,31.93
2018-01-31T02:57:43.785Z,32.40
2018-01-31T03:00:11.450Z,30.37
2018-01-31T03:02:39.101Z,29.60
2018-01-31T03:05:06.720Z,33.67
2018-01-31T03:07:34.379Z,31.20
2018-01-31T03:10:02.045Z,32.00
2018-01-31T03:12:29.909Z,33.70
2018-01-31T03:14:57.521Z,30.87
2018-01-31T03:17:25.273Z,35.07
2018-01-31T03:19:52.889Z,32.10
2018-01-31T03:22:20.548Z,29.83
2018-01-31T03:24:48.257Z,30.37
2018-01-31T03:27:15.872Z,29.43
2018-01-31T03:29:43.556Z,31.07
2018-01-31T03:32:11.212Z,34.17
2018-01-31T03:34:38.873Z,31.27
2018-01-31T03:37:06.683Z,31.17
2018-01-31T03:39:34.305Z,31.98
2018-01-31T03:42:02.297Z,29.93
2018-01-31T03:44:29.976Z,30.17
2018-01-31T03:46:57.596Z,31.70
2018-01-31T03:49:25.228Z,29.58
2018-01-31T03:51:52.889Z,29.23
2018-01-31T03:54:20.894Z,28.55
2018-01-31T03:56:48.513Z,27.17
2018-01-31T03:59:16.129Z,27.40
2018-01-31T04:01:44.083Z,26.17
2018-01-31T04:04:11.700Z,28.40
2018-01-31T04:06:39.353Z,25.25
2018-01-31T04:09:07.012Z,26.00
2018-01-31T04:11:34.688Z,26.57
2018-01-31T04:14:02.590Z,28.05
2018-01-31T04:16:30.245Z,24.75
2018-01-31T04:18:57.868Z,25.83
2018-01-31T04:21:25.489Z,23.43
2018-01-31T04:23:53.153Z,24.40
2018-01-31T04:26:34.144Z,24.07
2018-01-31T04:29:06.773Z,23.60
2018-01-31T04:31:35.006Z,19.93
2018-01-31T04:34:02.814Z,21.10
2018-01-31T04:36:30.428Z,24.63
2018-01-31T04:38:58.760Z,19.33
2018-01-31T04:41:26.415Z,21.90
2018-01-31T04:43:54.029Z,18.67
2018-01-31T04:46:21.685Z,18.07
2018-01-31T04:48:49.478Z,19.25
2018-01-31T04:51:17.128Z,19.07
2018-01-31T04:53:44.782Z,18.10
2018-01-31T04:56:12.437Z,17.92
2018-01-31T04:58:40.053Z,17.27
2018-01-31T05:01:07.710Z,17.00
2018-01-31T05:03:35.365Z,17.37
2018-01-31T05:06:02.989Z,16.20
2018-01-31T05:08:30.645Z,16.37
2018-01-31T05:10:58.261Z,14.97
2018-01-31T05:13:26.641Z,16.07
2018-01-31T05:15:55.057Z,15.47
2018-01-31T05:18:23.416Z,15.97
2018-01-31T05:20:51.650Z,14.83
2018-01-31T05:23:20.975Z,15.77
2018-01-31T05:25:49.828Z,15.70
2018-01-31T05:28:19.587Z,14.27
2018-01-31T05:30:52.903Z,14.86
2018-01-31T05:33:25.050Z,13.93
2018-01-31T05:35:52.880Z,15.20
2018-01-31T05:38:21.629Z,11.75
2018-01-31T05:40:49.249Z,14.34
2018-01-31T05:43:17.001Z,13.27
2018-01-31T05:45:44.657Z,12.50
2018-01-31T05:48:13.025Z,12.40
2018-01-31T05:50:40.644Z,12.63
2018-01-31T05:53:08.515Z,12.33
2018-01-31T05:55:36.125Z,11.23
2018-01-31T05:58:03.794Z,10.93
2018-01-31T06:00:31.495Z,10.70
2018-01-31T06:02:59.264Z,10.90
2018-01-31T06:05:26.876Z,10.30
2018-01-31T06:07:55.094Z,10.65
2018-01-31T06:10:25.593Z,10.94
2018-01-31T06:12:53.244Z,10.57
2018-01-31T06:15:21.144Z,9.67
2018-01-31T06:17:48.797Z,10.07
2018-01-31T06:20:16.445Z,9.23
2018-01-31T06:22:44.100Z,9.80
2018-01-31T06:25:11.889Z,12.37
2018-01-31T06:27:40.134Z,11.67
2018-01-31T06:30:08.432Z,11.02
2018-01-31T06:32:36.100Z,10.83
2018-01-31T06:35:03.716Z,12.20
2018-01-31T06:37:31.368Z,12.17
2018-01-31T06:39:59.017Z,13.13
2018-01-31T06:42:26.676Z,12.85
2018-01-31T06:44:54.292Z,12.90
2018-01-31T06:47:21.944Z,11.03
2018-01-31T06:49:49.605Z,12.63
2018-01-31T06:52:17.279Z,12.93
2018-01-31T06:54:44.954Z,12.53
2018-01-31T06:57:12.580Z,12.00
2018-01-31T06:59:40.237Z,10.93
2018-01-31T07:02:07.854Z,13.13
2018-01-31T07:04:37.013Z,11.80
2018-01-31T07:07:04.624Z,12.30
2018-01-31T07:09:32.452Z,11.43
2018-01-31T07:12:00.067Z,13.13
2018-01-31T07:14:27.718Z,13.50
2018-01-31T07:16:56.150Z,12.23
2018-01-31T07:19:24.000Z,11.60
2018-01-31T07:21:51.662Z,10.40
2018-01-31T07:24:19.436Z,11.30
2018-01-31T07:26:47.290Z,11.60
2018-01-31T07:29:14.908Z,12.07
2018-01-31T07:31:43.337Z,13.13
2018-01-31T07:34:10.953Z,11.15
2018-01-31T07:36:38.604Z,11.32
2018-01-31T07:39:07.364Z,10.50
2018-01-31T07:41:34.986Z,9.80
2018-01-31T07:44:02.609Z,10.25
2018-01-31T07:46:30.277Z,10.57
2018-01-31T07:48:57.888Z,8.88
2018-01-31T07:51:25.564Z,10.23
2018-01-31T07:53:53.173Z,9.10
2018-01-31T07:56:20.830Z,9.52
2018-01-31T07:58:49.009Z,11.10
2018-01-31T08:01:16.666Z,9.10
2018-01-31T08:03:44.772Z,8.73
2018-01-31T08:06:12.416Z,8.40
2018-01-31T08:08:40.076Z,9.73
2018-01-31T08:11:07.718Z,9.57
2018-01-31T08:13:35.399Z,9.47
2018-01-31T08:16:03.068Z,10.18
2018-01-31T08:18:30.680Z,9.13
2018-01-31T08:20:58.293Z,9.60
2018-01-31T08:23:26.074Z,9.95
2018-01-31T08:25:53.697Z,10.47
2018-01-31T08:28:21.365Z,10.13
2018-01-31T08:30:48.999Z,9.38
2018-01-31T08:33:16.661Z,9.73
2018-01-31T08:35:44.274Z,8.93
2018-01-31T08:38:12.657Z,9.75
2018-01-31T08:40:40.304Z,9.80
2018-01-31T08:43:07.957Z,8.80
2018-01-31T08:45:35.577Z,8.90
2018-01-31T08:48:03.225Z,7.10
2018-01-31T08:50:30.869Z,7.07
2018-01-31T08:52:59.249Z,8.37
2018-01-31T08:55:27.668Z,8.63
2018-01-31T08:57:55.295Z,10.20
2018-01-31T09:00:23.333Z,9.00
2018-01-31T09:02:50.946Z,9.35
2018-01-31T09:05:18.639Z,8.63
2018-01-31T09:07:47.326Z,10.00
2018-01-31T09:10:14.981Z,10.02
2018-01-31T09:12:43.446Z,10.90
2018-01-31T09:15:11.229Z,9.02
2018-01-31T09:17:38.889Z,9.20
2018-01-31T09:20:07.089Z,9.10
2018-01-31T09:22:35.491Z,9.40
2018-01-31T09:25:03.156Z,9.13
2018-01-31T09:27:31.522Z,8.30
2018-01-31T09:29:59.185Z,8.23
2018-01-31T09:32:27.372Z,10.40
2018-01-31T09:34:55.057Z,9.43
2018-01-31T09:37:22.722Z,9.10
2018-01-31T09:39:50.368Z,8.80
2018-01-31T09:42:17.986Z,9.18
2018-01-31T09:44:45.924Z,9.50
2018-01-31T09:47:13.582Z,9.48
2018-01-31T09:49:41.422Z,8.50
2018-01-31T09:52:09.079Z,9.07
2018-01-31T09:54:36.691Z,9.82
2018-01-31T09:57:05.106Z,8.85
2018-01-31T09:59:32.753Z,10.30
2018-01-31T10:02:00.405Z,9.20
2018-01-31T10:04:28.026Z,8.88
2018-01-31T10:06:55.678Z,8.70
2018-01-31T10:09:23.285Z,7.77
2018-01-31T10:11:50.934Z,6.37
2018-01-31T10:14:18.543Z,6.47
2018-01-31T10:16:46.162Z,6.37
2018-01-31T10:19:13.820Z,5.30
2018-01-31T10:21:42.195Z,5.70
2018-01-31T10:24:09.812Z,5.57
2018-01-31T10:26:37.573Z,5.27
2018-01-31T10:29:05.224Z,6.40
2018-01-31T10:31:32.828Z,5.47
2018-01-31T10:34:01.246Z,6.33
2018-01-31T10:36:29.459Z,6.40
2018-01-31T10:38:58.610Z,6.50
2018-01-31T10:41:26.222Z,7.00
2018-01-31T10:43:53.877Z,7.10
2018-01-31T10:46:21.500Z,7.30
2018-01-31T10:48:49.749Z,7.12
2018-01-31T10:51:17.401Z,8.13
2018-01-31T10:58:42.616Z,7.20
2018-01-31T11:01:10.285Z,8.52
2018-01-31T11:03:38.670Z,9.63
2018-01-31T11:06:07.045Z,8.40
2018-01-31T11:08:35.478Z,8.67
2018-01-31T11:11:03.158Z,7.10
2018-01-31T11:13:30.974Z,6.13
2018-01-31T11:15:58.589Z,4.47
2018-01-31T11:18:26.253Z,5.07
2018-01-31T11:20:53.865Z,4.70
2018-01-31T11:23:21.528Z,4.72
2018-01-31T11:25:49.133Z,4.80
2018-01-31T11:28:16.793Z,5.60
2018-01-31T11:30:44.414Z,4.37
2018-01-31T11:33:12.029Z,5.43
2018-01-31T11:35:39.685Z,4.80
2018-01-31T11:38:08.060Z,5.50
2018-01-31T11:40:36.440Z,5.60
2018-01-31T11:43:04.868Z,5.82
2018-01-31T11:45:33.132Z,5.90
2018-01-31T11:48:00.760Z,6.50
2018-01-31T11:50:28.407Z,5.70
2018-01-31T11:52:56.821Z,6.03
2018-01-31T11:55:24.473Z,6.10
2018-01-31T11:57:52.720Z,5.80
2018-01-31T12:00:21.073Z,5.85
2018-01-31T12:02:48.722Z,5.77
2018-01-31T12:05:16.341Z,5.57
2018-01-31T12:07:43.989Z,6.47
2018-01-31T12:10:11.603Z,5.63
2018-01-31T12:12:48.250Z,5.77
2018-01-31T12:15:23.756Z,6.00
2018-01-31T12:17:51.360Z,6.55
2018-01-31T12:20:30.721Z,6.40
2018-01-31T12:23:10.068Z,5.50
2018-01-31T12:25:49.584Z,6.90
2018-01-31T12:28:28.880Z,7.93
2018-01-31T12:31:10.063Z,5.68
2018-01-31T12:33:49.442Z,5.57
2018-01-31T12:36:29.408Z,6.80
2018-01-31T12:38:59.477Z,6.85
2018-01-31T12:41:26.636Z,5.90
2018-01-31T12:43:53.770Z,4.90
2018-01-31T12:46:33.519Z,6.22
2018-01-31T12:49:04.540Z,5.93
2018-01-31T12:51:43.940Z,5.83
2018-01-31T12:54:23.356Z,5.00
2018-01-31T12:57:02.950Z,4.67
2018-01-31T12:59:42.417Z,4.65
2018-01-31T13:02:29.603Z,4.72
2018-01-31T13:05:13.246Z,4.47
2018-01-31T13:07:52.749Z,4.20
2018-01-31T13:10:32.825Z,3.60
2018-01-31T13:13:12.185Z,3.80
2018-01-31T13:19:03.292Z,3.30
2018-01-31T13:21:42.630Z,4.57
2018-01-31T13:24:22.180Z,3.60
2018-01-31T13:27:01.566Z,3.07
2018-01-31T13:29:29.956Z,3.83
2018-01-31T13:32:10.305Z,3.50
2018-01-31T13:34:50.392Z,3.50
2018-01-31T13:37:36.120Z,3.20
2018-01-31T13:40:21.272Z,3.10
2018-01-31T13:43:00.918Z,2.93
2018-01-31T13:45:40.274Z,2.70
2018-01-31T13:48:19.673Z,2.60
2018-01-31T13:50:59.194Z,1.30
2018-01-31T13:53:38.665Z,1.37
2018-01-31T13:56:18.908Z,1.37
2018-01-31T13:58:58.871Z,1.10
2018-01-31T14:01:38.308Z,0.90
2018-01-31T14:07:15.103Z,0.90
2018-01-31T14:09:54.724Z,1.00
2018-01-31T14:12:34.844Z,0.90
2018-01-31T14:18:11.071Z,0.55
2018-01-31T14:20:50.442Z,1.40
2018-01-31T14:23:29.806Z,0.93
2018-01-31T14:26:09.383Z,0.80
2018-01-31T14:28:48.822Z,0.70
2018-01-31T14:44:50.618Z,1.10
2018-01-31T14:47:18.356Z,1.30
2018-01-31T14:49:45.625Z,1.60
2018-01-31T14:52:12.809Z,1.30
2018-01-31T14:54:39.924Z,1.57
2018-01-31T14:57:07.084Z,1.73
2018-01-31T14:59:34.247Z,1.37
2018-01-31T15:02:01.400Z,1.17
2018-01-31T15:04:28.517Z,1.70
2018-01-31T15:06:55.669Z,1.60
2018-01-31T15:09:23.058Z,1.33
2018-01-31T15:11:50.221Z,1.42
2018-01-31T15:14:17.343Z,2.05
2018-01-31T15:16:44.506Z,2.60
2018-01-31T15:19:12.104Z,2.00
2018-01-31T15:21:39.233Z,1.58
2018-01-31T15:24:06.389Z,1.80
2018-01-31T15:26:33.516Z,2.13
2018-01-31T15:29:01.447Z,1.27
2018-01-31T15:31:28.569Z,1.30
2018-01-31T15:33:55.724Z,1.10
2018-01-31T15:36:22.837Z,1.17
2018-01-31T15:38:50.005Z,1.03
2018-01-31T15:41:17.174Z,1.20
2018-01-31T15:43:44.380Z,1.00
2018-01-31T15:46:11.499Z,1.10
2018-01-31T15:48:38.729Z,1.23
2018-01-31T15:51:05.854Z,1.25
2018-01-31T15:53:33.789Z,1.27
2018-01-31T15:56:00.912Z,1.30
2018-01-31T15:58:28.089Z,1.63
2018-01-31T16:00:55.204Z,2.20
2018-01-31T16:03:22.477Z,2.10
2018-01-31T16:05:49.656Z,2.17
2018-01-31T16:08:17.536Z,2.23
2018-01-31T16:10:45.424Z,2.23
2018-01-31T16:13:12.589Z,2.92
2018-01-31T16:15:39.753Z,2.47
2018-01-31T16:18:07.361Z,2.77
2018-01-31T16:20:47.605Z,3.23
2018-01-31T16:23:16.249Z,2.77
2018-01-31T16:25:43.856Z,3.00
2018-01-31T16:31:11.053Z,2.95
2018-01-31T16:33:38.696Z,2.20
2018-01-31T16:36:06.301Z,3.03
2018-01-31T16:38:33.943Z,2.70
2018-01-31T16:41:01.545Z,1.73
2018-01-31T16:43:29.469Z,0.80
2018-01-31T16:45:57.119Z,0.88
2018-01-31T16:48:24.740Z,0.90
2018-01-31T16:50:53.165Z,1.10
2018-01-31T16:53:20.773Z,0.50
2018-01-31T16:55:49.185Z,0.70
2018-01-31T16:58:16.793Z,0.70
2018-01-31T17:00:44.441Z,0.77
2018-01-31T17:03:12.059Z,0.82
2018-01-31T17:05:39.706Z,0.80
2018-01-31T17:08:07.650Z,0.50
2018-01-31T17:10:35.293Z,0.50
2018-01-31T17:13:03.150Z,0.60
2018-01-31T17:15:30.914Z,0.83
2018-01-31T17:17:58.762Z,0.40
2018-01-31T17:20:26.369Z,0.60
2018-01-31T17:22:54.025Z,0.90
2018-01-31T17:25:21.640Z,0.80
2018-01-31T17:27:49.445Z,0.65
2018-01-31T17:30:17.137Z,0.88
2018-01-31T17:32:44.948Z,1.03
2018-01-31T17:35:12.704Z,0.80
2018-01-31T17:37:42.063Z,0.82
2018-01-31T17:40:09.805Z,1.10
2018-01-31T17:42:38.184Z,1.10
2018-01-31T17:45:06.832Z,0.87
2018-01-31T17:47:35.024Z,1.07
2018-01-31T17:50:02.661Z,0.93
2018-01-31T17:52:30.313Z,0.73
2018-01-31T17:54:58.648Z,0.60
2018-01-31T17:57:26.257Z,0.90
2018-01-31T17:59:53.921Z,0.70
2018-01-31T18:02:21.569Z,1.07
2018-01-31T18:04:49.225Z,1.17
2018-01-31T18:07:16.869Z,1.43
2018-01-31T18:09:44.474Z,1.40
2018-01-31T18:12:13.801Z,1.00
2018-01-31T18:14:41.404Z,1.10
2018-01-31T18:17:09.053Z,1.17
2018-01-31T18:19:36.661Z,1.10
2018-01-31T18:22:04.276Z,1.00
2018-01-31T18:24:31.920Z,0.93
2018-01-31T18:27:00.014Z,0.80
2018-01-31T18:29:29.310Z,1.00
2018-01-31T18:31:57.706Z,1.20
2018-01-31T18:34:25.347Z,1.27
2018-01-31T18:36:52.960Z,1.13
2018-01-31T18:39:20.670Z,1.17
2018-01-31T18:41:48.292Z,0.90
2018-01-31T18:44:15.944Z,1.00
2018-01-31T18:46:43.552Z,1.10
2018-01-31T18:49:11.185Z,1.30
2018-01-31T18:51:38.785Z,1.27
2018-01-31T18:54:06.424Z,1.10
2018-01-31T18:56:34.036Z,1.00
2018-01-31T18:59:02.492Z,1.10
2018-01-31T19:01:30.089Z,1.23
2018-01-31T19:03:57.737Z,1.10
2018-01-31T19:06:25.338Z,0.90
2018-01-31T19:08:52.989Z,0.90
2018-01-31T19:11:20.629Z,1.30
2018-01-31T19:13:48.234Z,0.90
2018-01-31T19:16:15.889Z,1.50
2018-01-31T19:18:43.498Z,1.48
2018-01-31T19:21:11.904Z,0.80
2018-01-31T19:23:39.521Z,1.35
2018-01-31T19:26:07.241Z,1.07
2018-01-31T19:28:34.985Z,1.00
2018-01-31T19:31:02.635Z,1.20
2018-01-31T19:33:30.244Z,1.30
2018-01-31T19:35:57.901Z,1.00
2018-01-31T19:38:25.509Z,1.20
2018-01-31T19:40:53.121Z,1.10
2018-01-31T19:43:21.683Z,1.23
2018-01-31T19:45:50.032Z,1.40
2018-01-31T19:48:18.302Z,0.83
2018-01-31T19:50:45.909Z,1.73
2018-01-31T19:53:13.559Z,1.20
2018-01-31T19:55:41.171Z,1.23
2018-01-31T19:58:08.817Z,1.60
2018-01-31T20:00:36.461Z,1.20
2018-01-31T20:03:04.096Z,1.50
2018-01-31T20:05:31.702Z,1.07
2018-01-31T20:07:59.349Z,1.23
2018-01-31T20:10:26.966Z,0.82
2018-01-31T20:12:54.751Z,1.60
2018-01-31T20:15:22.599Z,1.47
2018-01-31T20:17:50.205Z,1.00
2018-01-31T20:20:18.569Z,1.65
2018-01-31T20:22:46.177Z,1.55
2018-01-31T20:25:13.824Z,1.00
2018-01-31T20:27:41.722Z,2.53
2018-01-31T20:30:09.361Z,1.40
2018-01-31T20:32:36.975Z,1.08
2018-01-31T20:35:05.417Z,1.15
2018-01-31T20:37:33.025Z,1.37
2018-01-31T20:40:01.456Z,1.70
2018-01-31T20:42:29.219Z,1.13
2018-01-31T20:44:56.893Z,1.50
2018-01-31T20:47:24.506Z,2.20
2018-01-31T20:49:52.873Z,2.57
2018-01-31T20:52:21.300Z,1.77
2018-01-31T20:54:48.968Z,1.47
2018-01-31T20:57:16.728Z,0.88
2018-01-31T20:59:44.396Z,1.50
2018-01-31T21:02:12.058Z,1.27
2018-01-31T21:04:39.719Z,1.00
2018-01-31T21:07:07.324Z,2.43
2018-01-31T21:09:35.554Z,1.60
2018-01-31T21:12:03.197Z,1.00
2018-01-31T21:14:30.854Z,1.37
2018-01-31T21:16:59.269Z,1.40
2018-01-31T21:19:27.221Z,1.30
2018-01-31T21:21:54.881Z,1.27
2018-01-31T21:24:22.527Z,1.13
2018-01-31T21:26:50.133Z,1.63
2018-01-31T21:29:18.597Z,1.50
2018-01-31T21:31:46.219Z,2.20
2018-01-31T21:34:13.829Z,1.75
2018-01-31T21:36:42.248Z,1.90
2018-01-31T21:39:09.905Z,1.80
2018-01-31T21:41:37.508Z,1.70
2018-01-31T21:44:06.605Z,1.57
2018-01-31T21:46:34.264Z,1.87
2018-01-31T21:49:02.344Z,1.92
2018-01-31T21:51:29.993Z,1.60
2018-01-31T21:53:58.096Z,1.60
2018-01-31T21:56:25.700Z,1.55
2018-01-31T21:58:53.516Z,1.50
2018-01-31T22:01:21.125Z,1.37
2018-01-31T22:03:48.780Z,1.23
2018-01-31T22:06:16.384Z,1.23
2018-01-31T22:08:44.002Z,1.30
2018-01-31T22:11:11.649Z,1.50
2018-01-31T22:13:39.313Z,1.70
2018-01-31T22:16:06.951Z,1.90
2018-01-31T22:18:34.558Z,1.30
2018-01-31T22:21:02.972Z,1.57
2018-01-31T22:23:30.581Z,1.70
2018-01-31T22:25:59.446Z,2.40
2018-01-31T22:28:27.053Z,2.58
2018-01-31T22:30:54.701Z,2.30
2018-01-31T22:33:24.091Z,3.12
2018-01-31T22:35:51.701Z,3.33
2018-01-31T22:38:19.348Z,3.65
2018-01-31T22:40:47.752Z,4.07
2018-01-31T22:43:15.365Z,4.00
2018-01-31T22:45:43.013Z,4.57
2018-01-31T22:48:10.759Z,4.00
2018-01-31T22:50:38.368Z,5.20
2018-01-31T22:53:06.071Z,4.47
2018-01-31T22:55:33.686Z,5.03
2018-01-31T22:58:03.064Z,3.97
2018-01-31T23:00:30.714Z,4.60
2018-01-31T23:02:58.572Z,5.80
2018-01-31T23:05:26.443Z,5.93
2018-01-31T23:07:54.053Z,5.07
2018-01-31T23:10:21.708Z,4.67
2018-01-31T23:12:54.873Z,5.57
2018-01-31T23:15:22.522Z,4.60
2018-01-31T23:17:55.797Z,5.60
2018-01-31T23:20:23.410Z,6.50
2018-01-31T23:22:51.057Z,4.62
2018-01-31T23:25:19.266Z,5.63
2018-01-31T23:27:46.910Z,5.28
2018-01-31T23:30:17.146Z,5.30
2018-01-31T23:32:44.798Z,5.27
2018-01-31T23:35:12.406Z,5.10
2018-01-31T23:37:40.069Z,4.75
2018-01-31T23:40:07.683Z,4.40
2018-01-31T23:42:35.382Z,5.10
2018-01-31T23:45:02.988Z,4.40
2018-01-31T23:47:30.637Z,3.90
2018-01-31T23:49:59.009Z,4.60
2018-01-31T23:52:27.420Z,3.93
2018-01-31T23:54:55.070Z,4.10
2018-01-31T23:57:22.682Z,3.43
2018-01-31T23:59:51.110Z,3.77
